Toluca, MEX, Mexico
Current Conditions -  °F | °C
As of 5:47 PM on Sunday 21 Dec 2014 (Local Time) from MMTO Reporting Station
Broken Clouds Broken Clouds  
Wind Chill: 59°   Ceiling: 1500
Heat Index: 59°   Visibility: 8mi
Dew Point: 25°   Wind: 6mph
Humidity: 27%   Direction: 250°WSW
Pressure: 30.28"   Gusts: NA
Location:  19.29°N, 99.67°W
Report Text: MMTO 212347Z 25005KT 8SM BKN015 BKN080 BKN200 15/M04 A3028 RMK SLP133 52004 963 8/572 HZY
Loading
Personal Weather Stations






























Interactive Weather Map New forecast layout! Learn more

10-Day Weather Forecast

Advertisements
Track Severe Weather on mobile